Kappa — LM6081 — position and weather

sailwx.info

Track history (hours):
 
Tides and Currents Weather Stations Pressure Air Temp Water Temp Dewpoint Dewpoint Depression Visibility Wind Speed Wind Dir Waves Ship Positions

Kappa

Last reported at 2017-Oct-19 11:00 UTC. Time now 2017-Oct-19 11:17 UTC.
Position N 71°07' E 026°36'.

Length 12 m.

Type: Fishing. MMSI: 257317020.

Date/timePositionNaut miles runAvg speedWind from/ knotsBaromVisibWave heightAir tempDewpointWater temp
2017-Oct-19 11:00N 71°07' E 026°36'1 1.2
2017-Oct-19 10:30N 71°06' E 026°34'1 1.1
2017-Oct-19 09:59N 71°06' E 026°33'0 1.0
2017-Oct-19 09:30N 71°05' E 026°32'1 1.0
2017-Oct-19 09:00N 71°05' E 026°32'1 1.1
2017-Oct-19 08:30N 71°05' E 026°30'1 1.1
2017-Oct-19 07:59N 71°04' E 026°29'1 1.2
2017-Oct-19 07:30N 71°04' E 026°28'1 1.1
2017-Oct-19 07:00N 71°04' E 026°26'0 0.3
2017-Oct-19 06:30N 71°04' E 026°26'0 0.9
2017-Oct-19 05:59N 71°04' E 026°27'1 1.2
2017-Oct-19 05:30N 71°04' E 026°28'1 1.8
2017-Oct-19 05:00N 71°05' E 026°29'0 0.9
2017-Oct-19 04:29N 71°05' E 026°31'1 1.1
2017-Oct-19 04:01N 71°05' E 026°30'2 3.4
2017-Oct-19 03:30N 71°03' E 026°26'2 4.6
2017-Oct-19 03:00N 71°05' E 026°31'3 5.2
2017-Oct-19 02:30N 71°07' E 026°36'1 3.1
2017-Oct-19 02:00N 71°07' E 026°32'3 5.9
2017-Oct-19 01:30N 71°07' E 026°23'3 5.7
2017-Oct-19 00:59N 71°07' E 026°14'1 3.0
2017-Oct-19 00:30N 71°07' E 026°09'2 3.6
2017-Oct-19 00:00N 71°05' E 026°09'0 0.3
2017-Oct-18 23:30N 71°05' E 026°09'1 1.9
2017-Oct-18 23:00N 71°05' E 026°12'2 4.3
2017-Oct-18 22:30N 71°03' E 026°17'2 4.4
2017-Oct-18 21:59N 71°01' E 026°15'3 5.5
2017-Oct-18 21:30N 70°59' E 026°09'3 5.5
2017-Oct-18 21:00N 70°58' E 026°01'1 1.3
2017-Oct-18 20:26N 70°59' E 026°02'0 0.0
2017-Oct-18 19:50N 70°59' E 026°02'0 0.0
2017-Oct-18 19:26N 70°59' E 026°02'0 0.0
2017-Oct-18 18:56N 70°59' E 026°02'0 0.0
2017-Oct-18 18:29N 70°59' E 026°02'0 0.0
2017-Oct-18 17:52N 70°59' E 026°02'0 0.0
2017-Oct-18 17:07N 70°59' E 026°02'0 0.0
2017-Oct-18 16:55N 70°59' E 026°02'0 0.0
2017-Oct-18 16:16N 70°59' E 026°02'0 0.0
2017-Oct-18 15:58N 70°59' E 026°02'0 0.0
2017-Oct-18 15:25N 70°59' E 026°02'1 1.7
2017-Oct-18 14:59N 70°58' E 026°03'1 0.3
2017-Oct-18 12:09N 70°59' E 026°02'1 5.0
2017-Oct-18 12:00N 70°58' E 026°01'1 1.9
2017-Oct-18 11:29N 70°59' E 025°58'0 0.0
2017-Oct-18 10:59N 70°59' E 025°58'0 0.0
2017-Oct-18 10:29N 70°59' E 025°58'0 0.0
2017-Oct-18 09:59N 70°59' E 025°58'0 0.0
2017-Oct-18 09:29N 70°59' E 025°58'0 0.0
2017-Oct-18 08:59N 70°59' E 025°58'0 0.0
2017-Oct-18 08:29N 70°59' E 025°58'0 0.0
2017-Oct-18 07:59N 70°59' E 025°58'0 0.0
2017-Oct-18 07:29N 70°59' E 025°58'0 0.0
2017-Oct-18 06:59N 70°59' E 025°58'0 0.0
2017-Oct-18 06:29N 70°59' E 025°58'0 0.0
2017-Oct-18 05:59N 70°59' E 025°58'0 0.0
2017-Oct-18 05:29N 70°59' E 025°58'0 0.0
2017-Oct-18 04:59N 70°59' E 025°58'0 0.0
2017-Oct-18 04:29N 70°59' E 025°58'0 0.0
2017-Oct-18 03:59N 70°59' E 025°58'0 0.0
2017-Oct-18 03:29N 70°59' E 025°58'0 0.0
2017-Oct-18 02:59N 70°59' E 025°58'0 0.0
2017-Oct-18 02:29N 70°59' E 025°58'0 0.0
2017-Oct-18 01:59N 70°59' E 025°58'0 0.0
2017-Oct-18 01:29N 70°59' E 025°58'0 0.0
2017-Oct-18 00:59N 70°59' E 025°58'0 0.0
2017-Oct-18 00:29N 70°59' E 025°58'0 0.0
2017-Oct-17 23:59N 70°59' E 025°58'0 0.0
2017-Oct-17 23:29N 70°59' E 025°58'0 0.0
2017-Oct-17 22:59N 70°59' E 025°58'0 0.0
2017-Oct-17 22:29N 70°59' E 025°58'0 0.0
2017-Oct-17 21:59N 70°59' E 025°58'0 0.0
2017-Oct-17 21:29N 70°59' E 025°58'0 0.0
2017-Oct-17 20:59N 70°59' E 025°58'0 0.0
2017-Oct-17 20:29N 70°59' E 025°58'0 0.0
2017-Oct-17 19:59N 70°59' E 025°58'0 0.0
2017-Oct-17 19:29N 70°59' E 025°58'0 0.0
2017-Oct-17 18:59N 70°59' E 025°58'0 0.0
2017-Oct-17 18:30N 70°59' E 025°58'0 0.0
2017-Oct-17 18:00N 70°59' E 025°58'0 0.0
2017-Oct-17 17:30N 70°59' E 025°58'0 0.0
2017-Oct-17 17:00N 70°59' E 025°58'1 1.0
2017-Oct-17 16:29N 70°58' E 025°57'2 3.1
2017-Oct-17 15:59N 70°59' E 026°02'0 0.0
2017-Oct-17 15:29N 70°59' E 026°02'0 0.0
2017-Oct-17 14:56N 70°59' E 026°02'0 0.0
2017-Oct-17 14:20N 70°59' E 026°02'0 0.0
2017-Oct-17 13:30N 70°59' E 026°02'1 2.1
2017-Oct-17 12:59N 70°59' E 025°58'0 0.0
2017-Oct-17 12:29N 70°59' E 025°58'0 0.0
2017-Oct-17 11:59N 70°59' E 025°58'0 0.0
2017-Oct-17 11:29N 70°59' E 025°58'0 0.0
2017-Oct-17 10:59N 70°59' E 025°58'0 0.0
2017-Oct-17 10:30N 70°59' E 025°58'0 0.0
2017-Oct-17 10:00N 70°59' E 025°58'0 0.0
2017-Oct-17 09:30N 70°59' E 025°58'0 0.0
2017-Oct-17 09:00N 70°59' E 025°58'0 0.0
2017-Oct-17 08:30N 70°59' E 025°58'0 0.0
2017-Oct-17 08:00N 70°59' E 025°58'0 0.0
2017-Oct-17 07:30N 70°59' E 025°58'0 0.0
2017-Oct-17 07:00N 70°59' E 025°58'0 0.0
2017-Oct-17 06:30N 70°59' E 025°58'0 0.0
2017-Oct-17 06:00N 70°59' E 025°58'0 0.0
2017-Oct-17 05:30N 70°59' E 025°58'0 0.0
2017-Oct-17 05:00N 70°59' E 025°58'0 0.0
2017-Oct-17 04:29N 70°59' E 025°58'0 0.0
2017-Oct-17 03:59N 70°59' E 025°58'0 0.0
2017-Oct-17 03:29N 70°59' E 025°58'0 0.0
2017-Oct-17 02:59N 70°59' E 025°58'0 0.0
2017-Oct-17 02:29N 70°59' E 025°58'0 0.0
2017-Oct-17 01:59N 70°59' E 025°58'0 0.0
2017-Oct-17 01:29N 70°59' E 025°58'0 0.0
2017-Oct-17 00:59N 70°59' E 025°58'0 0.0
2017-Oct-17 00:29N 70°59' E 025°58'0 0.0
2017-Oct-16 23:59N 70°59' E 025°58'0 0.0
2017-Oct-16 23:29N 70°59' E 025°58'0 0.0
2017-Oct-16 22:59N 70°59' E 025°58'0 0.0
2017-Oct-16 22:29N 70°59' E 025°58'0 0.0
2017-Oct-16 21:59N 70°59' E 025°58'0 0.0
2017-Oct-16 21:29N 70°59' E 025°58'0 0.0
2017-Oct-16 20:59N 70°59' E 025°58'0 0.0
2017-Oct-16 20:29N 70°59' E 025°58'0 0.0
2017-Oct-16 19:59N 70°59' E 025°58'0 0.0
2017-Oct-16 19:29N 70°59' E 025°58'0 0.0
2017-Oct-16 18:59N 70°59' E 025°58'0 0.0
2017-Oct-16 18:29N 70°59' E 025°58'0 0.0
2017-Oct-16 17:59N 70°59' E 025°58'0 0.0
2017-Oct-16 17:29N 70°59' E 025°58'0 0.0
2017-Oct-16 16:59N 70°59' E 025°58'0 0.0
2017-Oct-16 16:29N 70°59' E 025°58'0 0.0
2017-Oct-16 15:58N 70°59' E 025°58'0 0.0
2017-Oct-16 15:28N 70°59' E 025°58'0 0.0
2017-Oct-16 14:58N 70°59' E 025°58'0 0.0
2017-Oct-16 13:58N 70°59' E 025°58'0 0.0
2017-Oct-16 13:27N 70°59' E 025°58'1 2.1
2017-Oct-16 13:00N 70°58' E 026°01'1 1.2
2017-Oct-16 12:19N 70°59' E 026°02'0 0.0
2017-Oct-16 11:34N 70°59' E 026°02'0 0.0
2017-Oct-16 11:28N 70°59' E 026°02'0 0.0
2017-Oct-16 09:16N 70°59' E 026°02'0 0.0
2017-Oct-16 08:52N 70°59' E 026°02'0 0.1
2017-Oct-16 08:02N 70°59' E 026°02'0 5.4
2017-Oct-16 07:57N 70°59' E 026°01'1 2.3
2017-Oct-16 07:29N 70°59' E 025°58'0 0.3
2017-Oct-16 06:59N 70°59' E 025°58'0 0.0
2017-Oct-16 06:29N 70°59' E 025°58'0 0.0
2017-Oct-16 05:59N 70°59' E 025°58'0 0.0
2017-Oct-16 05:29N 70°59' E 025°58'0 0.0
2017-Oct-16 04:59N 70°59' E 025°58'0 0.0
2017-Oct-16 04:29N 70°59' E 025°58'0 0.0
2017-Oct-16 03:59N 70°59' E 025°58'0 0.0
2017-Oct-16 03:29N 70°59' E 025°58'0 0.0
2017-Oct-16 02:59N 70°59' E 025°58'0 0.0
2017-Oct-16 02:29N 70°59' E 025°58'0 0.0
2017-Oct-16 01:59N 70°59' E 025°58'0 0.0
2017-Oct-16 01:29N 70°59' E 025°58'0 0.0
2017-Oct-16 00:59N 70°59' E 025°58'0 0.0
2017-Oct-16 00:29N 70°59' E 025°58'0 0.0
2017-Oct-15 23:59N 70°59' E 025°58'0 0.0
2017-Oct-15 23:29N 70°59' E 025°58'0 0.0
2017-Oct-15 22:59N 70°59' E 025°58'0 0.0
2017-Oct-15 22:29N 70°59' E 025°58'0 0.0
2017-Oct-15 21:59N 70°59' E 025°58'0 0.0
2017-Oct-15 21:29N 70°59' E 025°58'0 0.0
2017-Oct-15 20:59N 70°59' E 025°58'0 0.0
2017-Oct-15 20:29N 70°59' E 025°58'0 0.0
2017-Oct-15 19:59N 70°59' E 025°58'0 0.0
2017-Oct-15 19:29N 70°59' E 025°58'0 0.0
2017-Oct-15 18:59N 70°59' E 025°58'0 0.0
2017-Oct-15 18:29N 70°59' E 025°58'0 0.0
2017-Oct-15 17:59N 70°59' E 025°58'0 0.0
2017-Oct-15 17:29N 70°59' E 025°58'0 0.0
2017-Oct-15 16:59N 70°59' E 025°58'0 0.0
2017-Oct-15 16:29N 70°59' E 025°58'0 0.0
2017-Oct-15 15:59N 70°59' E 025°58'0 0.0
2017-Oct-15 15:29N 70°59' E 025°58'0 0.0
2017-Oct-15 14:59N 70°59' E 025°58'0 0.0
2017-Oct-15 13:59N 70°59' E 025°58'0 0.0
2017-Oct-15 13:29N 70°59' E 025°58'0 0.0
2017-Oct-15 12:59N 70°59' E 025°58'0 0.0
2017-Oct-15 12:29N 70°59' E 025°58'0 0.0
2017-Oct-15 11:59N 70°59' E 025°58'0 0.0
2017-Oct-15 11:29N 70°59' E 025°58'0 0.0
2017-Oct-15 10:59N 70°59' E 025°58'0 0.0
2017-Oct-15 10:29N 70°59' E 025°58'0 0.0
2017-Oct-15 09:59N 70°59' E 025°58'0 0.0
2017-Oct-15 09:29N 70°59' E 025°58'0 0.0
2017-Oct-15 08:59N 70°59' E 025°58'0 0.0
2017-Oct-15 08:29N 70°59' E 025°58'0 0.0
2017-Oct-15 07:59N 70°59' E 025°58'0 0.0
2017-Oct-15 07:29N 70°59' E 025°58'0 0.0
2017-Oct-15 06:59N 70°59' E 025°58'0 0.0
2017-Oct-15 06:29N 70°59' E 025°58'0 0.0
2017-Oct-15 05:59N 70°59' E 025°58'0 0.0
2017-Oct-15 05:29N 70°59' E 025°58'0 0.0
2017-Oct-15 04:59N 70°59' E 025°58'0 0.0
2017-Oct-15 04:29N 70°59' E 025°58'0 0.0
2017-Oct-15 03:59N 70°59' E 025°58'0 0.0
2017-Oct-15 03:29N 70°59' E 025°58'0 0.0
2017-Oct-15 02:59N 70°59' E 025°58'0 0.0
2017-Oct-15 02:29N 70°59' E 025°58'0 0.0
2017-Oct-15 01:59N 70°59' E 025°58'0 0.0
2017-Oct-15 01:29N 70°59' E 025°58'0 0.0
2017-Oct-15 00:59N 70°59' E 025°58'0 0.0
2017-Oct-15 00:29N 70°59' E 025°58'0 0.0
2017-Oct-14 23:59N 70°59' E 025°58'0 0.0
2017-Oct-14 23:29N 70°59' E 025°58'0 0.0
2017-Oct-14 22:59N 70°59' E 025°58'0 0.0
2017-Oct-14 22:29N 70°59' E 025°58'0 0.0
2017-Oct-14 21:59N 70°59' E 025°58'0 0.0
2017-Oct-14 21:29N 70°59' E 025°58'0 0.0
2017-Oct-14 20:59N 70°59' E 025°58'0 0.0
2017-Oct-14 20:29N 70°59' E 025°58'0 0.0
2017-Oct-14 19:59N 70°59' E 025°58'0 0.0
2017-Oct-14 19:29N 70°59' E 025°58'0 0.0
2017-Oct-14 18:59N 70°59' E 025°58'0 0.0
2017-Oct-14 18:29N 70°59' E 025°58'0 0.0
2017-Oct-14 17:59N 70°59' E 025°58'0 0.0
2017-Oct-14 17:29N 70°59' E 025°58'0 0.0
2017-Oct-14 16:59N 70°59' E 025°58'0 0.0
2017-Oct-14 16:29N 70°59' E 025°58'0 0.0
2017-Oct-14 15:59N 70°59' E 025°58'0 0.0
2017-Oct-14 15:29N 70°59' E 025°58'0 0.0
2017-Oct-14 14:59N 70°59' E 025°58'0 0.0
2017-Oct-14 14:29N 70°59' E 025°58'0 0.0
2017-Oct-14 13:59N 70°59' E 025°58'0 0.0
2017-Oct-14 13:29N 70°59' E 025°58'0 0.0
2017-Oct-14 12:59N 70°59' E 025°58'0 0.0
2017-Oct-14 12:29N 70°59' E 025°58'0 0.0
2017-Oct-14 11:59N 70°59' E 025°58'0 0.0
2017-Oct-14 11:29N 70°59' E 025°58'0 0.0
2017-Oct-14 10:59N 70°59' E 025°58'0 0.0
2017-Oct-14 10:29N 70°59' E 025°58'0 0.0
2017-Oct-14 09:59N 70°59' E 025°58'0 0.0
2017-Oct-14 09:30N 70°59' E 025°58'0 0.0
2017-Oct-14 08:59N 70°59' E 025°58'0 0.0
2017-Oct-14 08:30N 70°59' E 025°58'0 0.0
2017-Oct-14 07:59N 70°59' E 025°58'0 0.0
2017-Oct-14 07:30N 70°59' E 025°58'0 0.0
2017-Oct-14 07:00N 70°59' E 025°58'0 0.0
2017-Oct-14 06:30N 70°59' E 025°58'0 0.0
2017-Oct-14 06:00N 70°59' E 025°58'0 0.0
2017-Oct-14 05:30N 70°59' E 025°58'0 0.0
2017-Oct-14 05:00N 70°59' E 025°58'0 0.0
2017-Oct-14 04:30N 70°59' E 025°58'0 0.0
2017-Oct-14 04:00N 70°59' E 025°58'0 0.0
2017-Oct-14 03:30N 70°59' E 025°58'0 0.0
2017-Oct-14 03:00N 70°59' E 025°58'0 0.0
2017-Oct-14 02:30N 70°59' E 025°58'0 0.0
2017-Oct-14 02:00N 70°59' E 025°58'0 0.0
2017-Oct-14 01:30N 70°59' E 025°58'0 0.0
2017-Oct-14 01:00N 70°59' E 025°58'0 0.0
2017-Oct-14 00:30N 70°59' E 025°58'0 0.0
2017-Oct-14 00:00N 70°59' E 025°58'0 0.0
2017-Oct-13 23:30N 70°59' E 025°58'0 0.0
2017-Oct-13 23:00N 70°59' E 025°58'0 0.0
2017-Oct-13 22:30N 70°59' E 025°58'0 0.0
2017-Oct-13 22:00N 70°59' E 025°58'0 0.0
2017-Oct-13 21:30N 70°59' E 025°58'0 0.0
2017-Oct-13 20:59N 70°59' E 025°58'0 0.0
2017-Oct-13 20:29N 70°59' E 025°58'0 0.0
2017-Oct-13 19:58N 70°59' E 025°58'0 0.0
2017-Oct-13 19:28N 70°59' E 025°58'0 0.0
2017-Oct-13 18:58N 70°59' E 025°58'0 0.0
2017-Oct-13 18:28N 70°59' E 025°58'1 1.3
2017-Oct-13 18:00N 70°59' E 025°57'4 7.3
2017-Oct-13 17:30N 70°56' E 025°48'4 7.3
2017-Oct-13 16:59N 70°56' E 025°36'4 7.5
2017-Oct-13 16:30N 70°58' E 025°27'4 7.5
2017-Oct-13 16:00N 70°59' E 025°16'4 7.2
2017-Oct-13 15:30N 70°59' E 025°05'3 7.0
2017-Oct-13 15:00N 70°59' E 024°54'4 7.2
2017-Oct-13 14:30N 70°60' E 024°43'1 2.5
2017-Oct-13 14:00N 70°60' E 024°39'0 0.0
2017-Oct-13 13:30N 70°60' E 024°39'1 3.0
2017-Oct-13 13:00N 70°60' E 024°44'2 5.0
2017-Oct-13 12:30N 70°60' E 024°52'3 5.1
2017-Oct-13 12:00N 70°60' E 024°59'3 5.0
2017-Oct-13 11:29N 70°60' E 025°07'2 5.1
2017-Oct-13 11:01N 70°59' E 025°15'2 5.0
2017-Oct-13 10:30N 70°59' E 025°22'4 5.3
2017-Oct-13 09:50N 70°56' E 025°31'1 4.3
2017-Oct-13 09:30N 70°56' E 025°35'3 5.2
2017-Oct-13 09:00N 70°56' E 025°42'2 4.5
2017-Oct-13 08:30N 70°57' E 025°49'2 4.7
2017-Oct-13 08:00N 70°57' E 025°56'2 0.1
2017-Oct-12 16:24N 70°59' E 025°58'0 0.0
2017-Oct-12 15:59N 70°59' E 025°58'0 0.0
2017-Oct-12 15:29N 70°59' E 025°58'0 0.0
2017-Oct-12 14:59N 70°59' E 025°58'0 0.0
2017-Oct-12 14:29N 70°59' E 025°58'0 0.0
2017-Oct-12 13:59N 70°59' E 025°58'0 0.0
2017-Oct-12 13:29N 70°59' E 025°58'0 0.0
2017-Oct-12 12:59N 70°59' E 025°58'0 0.0
2017-Oct-12 12:29N 70°59' E 025°58'0 0.0
2017-Oct-12 11:59N 70°59' E 025°58'0 0.0
2017-Oct-12 11:29N 70°59' E 025°58'0 0.0
2017-Oct-12 10:59N 70°59' E 025°58'0 0.0
2017-Oct-12 10:29N 70°59' E 025°58'0 0.0
2017-Oct-12 09:59N 70°59' E 025°58'0 0.0
2017-Oct-12 09:29N 70°59' E 025°58'0 0.0
2017-Oct-12 08:59N 70°59' E 025°58'0 0.0
2017-Oct-12 08:29N 70°59' E 025°58'0 0.0
2017-Oct-12 07:59N 70°59' E 025°58'0 0.0
2017-Oct-12 07:29N 70°59' E 025°58'0 0.0
2017-Oct-12 06:59N 70°59' E 025°58'0 0.0
2017-Oct-12 06:29N 70°59' E 025°58'0 0.0
2017-Oct-12 05:59N 70°59' E 025°58'0 0.0
2017-Oct-12 05:29N 70°59' E 025°58'0 0.0
2017-Oct-12 04:59N 70°59' E 025°58'0 0.0
2017-Oct-12 04:29N 70°59' E 025°58'0 0.0
2017-Oct-12 03:59N 70°59' E 025°58'0 0.0
2017-Oct-12 03:29N 70°59' E 025°58'0 0.0
2017-Oct-12 02:59N 70°59' E 025°58'0 0.0
2017-Oct-12 02:29N 70°59' E 025°58'0 0.0
2017-Oct-12 01:59N 70°59' E 025°58'0 0.0
2017-Oct-12 01:29N 70°59' E 025°58'0 0.0
2017-Oct-12 00:59N 70°59' E 025°58'0 0.0
2017-Oct-12 00:29N 70°59' E 025°58'0 0.0
2017-Oct-11 23:59N 70°59' E 025°58'0 0.0
2017-Oct-11 23:29N 70°59' E 025°58'0 0.0
2017-Oct-11 22:59N 70°59' E 025°58'0 0.0
2017-Oct-11 22:29N 70°59' E 025°58'0 0.0
2017-Oct-11 21:59N 70°59' E 025°58'0 0.0
2017-Oct-11 21:30N 70°59' E 025°58'0 0.0
2017-Oct-11 20:59N 70°59' E 025°58'0 0.0
2017-Oct-11 20:29N 70°59' E 025°58'0 0.0
2017-Oct-11 19:59N 70°59' E 025°58'0 0.0
2017-Oct-11 19:29N 70°59' E 025°58'0 0.0
2017-Oct-11 18:59N 70°59' E 025°58'0 0.0
2017-Oct-11 18:29N 70°59' E 025°58'0 0.0
2017-Oct-11 18:00N 70°59' E 025°58'0 0.0
2017-Oct-11 17:30N 70°59' E 025°58'0 0.0
2017-Oct-11 17:00N 70°59' E 025°58'0 0.0
2017-Oct-11 00:00N 70°59' E 025°58'0 0.0
2017-Oct-10 23:30N 70°59' E 025°58'0 0.0
2017-Oct-10 23:00N 70°59' E 025°58'0 0.0
2017-Oct-10 22:30N 70°59' E 025°58'0 0.0
2017-Oct-10 22:00N 70°59' E 025°58'0 0.0
2017-Oct-10 21:30N 70°59' E 025°58'0 0.0
2017-Oct-10 21:00N 70°59' E 025°58'0 0.0
2017-Oct-10 20:30N 70°59' E 025°58'0 0.0
2017-Oct-10 20:00N 70°59' E 025°58'0 0.0
2017-Oct-10 19:30N 70°59' E 025°58'0 0.0
2017-Oct-10 19:00N 70°59' E 025°58'0 0.0
2017-Oct-10 18:30N 70°59' E 025°58'0 0.0
2017-Oct-10 18:00N 70°59' E 025°58'0 0.0
2017-Oct-10 17:30N 70°59' E 025°58'0 0.0
2017-Oct-10 17:00N 70°59' E 025°58'0 0.0
2017-Oct-10 16:30N 70°59' E 025°58'0 0.0
2017-Oct-10 16:00N 70°59' E 025°58'0 0.0
2017-Oct-10 15:30N 70°59' E 025°58'0 0.0
2017-Oct-10 15:00N 70°59' E 025°58'0 0.0
2017-Oct-10 14:00N 70°59' E 025°58'0 0.0
2017-Oct-10 13:30N 70°59' E 025°58'0 0.0
2017-Oct-10 13:00N 70°59' E 025°58'0 0.0
2017-Oct-10 12:30N 70°59' E 025°58'0 0.0
2017-Oct-10 12:00N 70°59' E 025°58'0 0.0
2017-Oct-10 11:30N 70°59' E 025°58'0 0.0
2017-Oct-10 11:00N 70°59' E 025°58'0 0.0
2017-Oct-10 10:30N 70°59' E 025°58'0 0.0
2017-Oct-10 10:00N 70°59' E 025°58'0 0.0
2017-Oct-10 09:30N 70°59' E 025°58'0 0.0
2017-Oct-10 09:00N 70°59' E 025°58'0 0.0
2017-Oct-10 08:30N 70°59' E 025°58'0 0.0
2017-Oct-10 07:57N 70°59' E 025°58'0 0.0
2017-Oct-10 07:30N 70°59' E 025°58'0 0.0
2017-Oct-10 07:00N 70°59' E 025°58'0 0.0
2017-Oct-10 06:30N 70°59' E 025°58'0 0.0
2017-Oct-10 06:00N 70°59' E 025°58'0 0.0
2017-Oct-10 05:30N 70°59' E 025°58'0 0.0
2017-Oct-10 05:00N 70°59' E 025°58'0 0.0
2017-Oct-10 04:30N 70°59' E 025°58'0 0.0
2017-Oct-10 04:00N 70°59' E 025°58'0 0.0
2017-Oct-10 03:30N 70°59' E 025°58'0 0.0
2017-Oct-10 03:00N 70°59' E 025°58'0 0.0
2017-Oct-10 02:30N 70°59' E 025°58'0 0.0
2017-Oct-10 02:00N 70°59' E 025°58'0 0.0
2017-Oct-10 01:30N 70°59' E 025°58'0 0.0
2017-Oct-10 01:00N 70°59' E 025°58'0 0.0
2017-Oct-10 00:30N 70°59' E 025°58'0 0.0
2017-Oct-10 00:00N 70°59' E 025°58'0 0.0
2017-Oct-09 23:30N 70°59' E 025°58'0 0.0
2017-Oct-09 23:00N 70°59' E 025°58'0 0.0
2017-Oct-09 22:30N 70°59' E 025°58'0 0.0
2017-Oct-09 22:00N 70°59' E 025°58'0 0.0
2017-Oct-09 21:30N 70°59' E 025°58'0 0.0
2017-Oct-09 21:00N 70°59' E 025°58'0 0.0
2017-Oct-09 20:30N 70°59' E 025°58'0 0.0
2017-Oct-09 20:00N 70°59' E 025°58'0 0.0
2017-Oct-09 19:30N 70°59' E 025°58'0 0.0
2017-Oct-09 19:00N 70°59' E 025°58'0 0.0
2017-Oct-09 18:30N 70°59' E 025°58'0 0.0
2017-Oct-09 18:00N 70°59' E 025°58'0 0.0
2017-Oct-09 17:30N 70°59' E 025°58'0 0.0
2017-Oct-09 17:00N 70°59' E 025°58'0 0.0
2017-Oct-09 16:30N 70°59' E 025°58'0 0.0
2017-Oct-09 16:00N 70°59' E 025°58'0 0.0
2017-Oct-09 15:30N 70°59' E 025°58'0 0.0
2017-Oct-09 15:00N 70°59' E 025°58'0 0.0
2017-Oct-09 14:30N 70°59' E 025°58'0 0.0
2017-Oct-09 14:00N 70°59' E 025°58'0 0.0
2017-Oct-09 13:30N 70°59' E 025°58'0 0.0
2017-Oct-09 13:00N 70°59' E 025°58'0 0.0
2017-Oct-09 12:30N 70°59' E 025°58'0 0.0
2017-Oct-09 12:00N 70°59' E 025°58'0 0.0
2017-Oct-09 11:30N 70°59' E 025°58'0 0.0
2017-Oct-09 11:00N 70°59' E 025°58'  
Track history (hours):
 
Tides and Currents Weather Stations Pressure Air Temp Water Temp Dewpoint Dewpoint Depression Visibility Wind Speed Wind Dir Waves Ship Positions

Kappa

Last reported at 2017-Oct-19 11:00 UTC. Time now 2017-Oct-19 11:17 UTC.
Position N 71°07' E 026°36'.

Length 12 m.

Type: Fishing. MMSI: 257317020.

Date/timePositionNaut miles runAvg speedWind from/ knotsBaromVisibWave heightAir tempDewpointWater temp
2017-Oct-19 11:00N 71°07' E 026°36'1 1.2
2017-Oct-19 10:30N 71°06' E 026°34'1 1.1
2017-Oct-19 09:59N 71°06' E 026°33'0 1.0
2017-Oct-19 09:30N 71°05' E 026°32'1 1.0
2017-Oct-19 09:00N 71°05' E 026°32'1 1.1
2017-Oct-19 08:30N 71°05' E 026°30'1 1.1
2017-Oct-19 07:59N 71°04' E 026°29'1 1.2
2017-Oct-19 07:30N 71°04' E 026°28'1 1.1
2017-Oct-19 07:00N 71°04' E 026°26'0 0.3
2017-Oct-19 06:30N 71°04' E 026°26'0 0.9
2017-Oct-19 05:59N 71°04' E 026°27'1 1.2
2017-Oct-19 05:30N 71°04' E 026°28'1 1.8
2017-Oct-19 05:00N 71°05' E 026°29'0 0.9
2017-Oct-19 04:29N 71°05' E 026°31'1 1.1
2017-Oct-19 04:01N 71°05' E 026°30'2 3.4
2017-Oct-19 03:30N 71°03' E 026°26'2 4.6
2017-Oct-19 03:00N 71°05' E 026°31'3 5.2
2017-Oct-19 02:30N 71°07' E 026°36'1 3.1
2017-Oct-19 02:00N 71°07' E 026°32'3 5.9
2017-Oct-19 01:30N 71°07' E 026°23'3 5.7
2017-Oct-19 00:59N 71°07' E 026°14'1 3.0
2017-Oct-19 00:30N 71°07' E 026°09'2 3.6
2017-Oct-19 00:00N 71°05' E 026°09'0 0.3
2017-Oct-18 23:30N 71°05' E 026°09'1 1.9
2017-Oct-18 23:00N 71°05' E 026°12'2 4.3
2017-Oct-18 22:30N 71°03' E 026°17'2 4.4
2017-Oct-18 21:59N 71°01' E 026°15'3 5.5
2017-Oct-18 21:30N 70°59' E 026°09'3 5.5
2017-Oct-18 21:00N 70°58' E 026°01'1 1.3
2017-Oct-18 20:26N 70°59' E 026°02'0 0.0
2017-Oct-18 19:50N 70°59' E 026°02'0 0.0
2017-Oct-18 19:26N 70°59' E 026°02'0 0.0
2017-Oct-18 18:56N 70°59' E 026°02'0 0.0
2017-Oct-18 18:29N 70°59' E 026°02'0 0.0
2017-Oct-18 17:52N 70°59' E 026°02'0 0.0
2017-Oct-18 17:07N 70°59' E 026°02'0 0.0
2017-Oct-18 16:55N 70°59' E 026°02'0 0.0
2017-Oct-18 16:16N 70°59' E 026°02'0 0.0
2017-Oct-18 15:58N 70°59' E 026°02'0 0.0
2017-Oct-18 15:25N 70°59' E 026°02'1 1.7
2017-Oct-18 14:59N 70°58' E 026°03'1 0.3
2017-Oct-18 12:09N 70°59' E 026°02'1 5.0
2017-Oct-18 12:00N 70°58' E 026°01'1 1.9
2017-Oct-18 11:29N 70°59' E 025°58'0 0.0
2017-Oct-18 10:59N 70°59' E 025°58'0 0.0
2017-Oct-18 10:29N 70°59' E 025°58'0 0.0
2017-Oct-18 09:59N 70°59' E 025°58'0 0.0
2017-Oct-18 09:29N 70°59' E 025°58'0 0.0
2017-Oct-18 08:59N 70°59' E 025°58'0 0.0
2017-Oct-18 08:29N 70°59' E 025°58'0 0.0
2017-Oct-18 07:59N 70°59' E 025°58'0 0.0
2017-Oct-18 07:29N 70°59' E 025°58'0 0.0
2017-Oct-18 06:59N 70°59' E 025°58'0 0.0
2017-Oct-18 06:29N 70°59' E 025°58'0 0.0
2017-Oct-18 05:59N 70°59' E 025°58'0 0.0
2017-Oct-18 05:29N 70°59' E 025°58'0 0.0
2017-Oct-18 04:59N 70°59' E 025°58'0 0.0
2017-Oct-18 04:29N 70°59' E 025°58'0 0.0
2017-Oct-18 03:59N 70°59' E 025°58'0 0.0
2017-Oct-18 03:29N 70°59' E 025°58'0 0.0
2017-Oct-18 02:59N 70°59' E 025°58'0 0.0
2017-Oct-18 02:29N 70°59' E 025°58'0 0.0
2017-Oct-18 01:59N 70°59' E 025°58'0 0.0
2017-Oct-18 01:29N 70°59' E 025°58'0 0.0
2017-Oct-18 00:59N 70°59' E 025°58'0 0.0
2017-Oct-18 00:29N 70°59' E 025°58'0 0.0
2017-Oct-17 23:59N 70°59' E 025°58'0 0.0
2017-Oct-17 23:29N 70°59' E 025°58'0 0.0
2017-Oct-17 22:59N 70°59' E 025°58'0 0.0
2017-Oct-17 22:29N 70°59' E 025°58'0 0.0
2017-Oct-17 21:59N 70°59' E 025°58'0 0.0
2017-Oct-17 21:29N 70°59' E 025°58'0 0.0
2017-Oct-17 20:59N 70°59' E 025°58'0 0.0
2017-Oct-17 20:29N 70°59' E 025°58'0 0.0
2017-Oct-17 19:59N 70°59' E 025°58'0 0.0
2017-Oct-17 19:29N 70°59' E 025°58'0 0.0
2017-Oct-17 18:59N 70°59' E 025°58'0 0.0
2017-Oct-17 18:30N 70°59' E 025°58'0 0.0
2017-Oct-17 18:00N 70°59' E 025°58'0 0.0
2017-Oct-17 17:30N 70°59' E 025°58'0 0.0
2017-Oct-17 17:00N 70°59' E 025°58'1 1.0
2017-Oct-17 16:29N 70°58' E 025°57'2 3.1
2017-Oct-17 15:59N 70°59' E 026°02'0 0.0
2017-Oct-17 15:29N 70°59' E 026°02'0 0.0
2017-Oct-17 14:56N 70°59' E 026°02'0 0.0
2017-Oct-17 14:20N 70°59' E 026°02'0 0.0
2017-Oct-17 13:30N 70°59' E 026°02'1 2.1
2017-Oct-17 12:59N 70°59' E 025°58'0 0.0
2017-Oct-17 12:29N 70°59' E 025°58'0 0.0
2017-Oct-17 11:59N 70°59' E 025°58'0 0.0
2017-Oct-17 11:29N 70°59' E 025°58'0 0.0
2017-Oct-17 10:59N 70°59' E 025°58'0 0.0
2017-Oct-17 10:30N 70°59' E 025°58'0 0.0
2017-Oct-17 10:00N 70°59' E 025°58'0 0.0
2017-Oct-17 09:30N 70°59' E 025°58'0 0.0
2017-Oct-17 09:00N 70°59' E 025°58'0 0.0
2017-Oct-17 08:30N 70°59' E 025°58'0 0.0
2017-Oct-17 08:00N 70°59' E 025°58'0 0.0
2017-Oct-17 07:30N 70°59' E 025°58'0 0.0
2017-Oct-17 07:00N 70°59' E 025°58'0 0.0
2017-Oct-17 06:30N 70°59' E 025°58'0 0.0
2017-Oct-17 06:00N 70°59' E 025°58'0 0.0
2017-Oct-17 05:30N 70°59' E 025°58'0 0.0
2017-Oct-17 05:00N 70°59' E 025°58'0 0.0
2017-Oct-17 04:29N 70°59' E 025°58'0 0.0
2017-Oct-17 03:59N 70°59' E 025°58'0 0.0
2017-Oct-17 03:29N 70°59' E 025°58'0 0.0
2017-Oct-17 02:59N 70°59' E 025°58'0 0.0
2017-Oct-17 02:29N 70°59' E 025°58'0 0.0
2017-Oct-17 01:59N 70°59' E 025°58'0 0.0
2017-Oct-17 01:29N 70°59' E 025°58'0 0.0
2017-Oct-17 00:59N 70°59' E 025°58'0 0.0
2017-Oct-17 00:29N 70°59' E 025°58'0 0.0
2017-Oct-16 23:59N 70°59' E 025°58'0 0.0
2017-Oct-16 23:29N 70°59' E 025°58'0 0.0
2017-Oct-16 22:59N 70°59' E 025°58'0 0.0
2017-Oct-16 22:29N 70°59' E 025°58'0 0.0
2017-Oct-16 21:59N 70°59' E 025°58'0 0.0
2017-Oct-16 21:29N 70°59' E 025°58'0 0.0
2017-Oct-16 20:59N 70°59' E 025°58'0 0.0
2017-Oct-16 20:29N 70°59' E 025°58'0 0.0
2017-Oct-16 19:59N 70°59' E 025°58'0 0.0
2017-Oct-16 19:29N 70°59' E 025°58'0 0.0
2017-Oct-16 18:59N 70°59' E 025°58'0 0.0
2017-Oct-16 18:29N 70°59' E 025°58'0 0.0
2017-Oct-16 17:59N 70°59' E 025°58'0 0.0
2017-Oct-16 17:29N 70°59' E 025°58'0 0.0
2017-Oct-16 16:59N 70°59' E 025°58'0 0.0
2017-Oct-16 16:29N 70°59' E 025°58'0 0.0
2017-Oct-16 15:58N 70°59' E 025°58'0 0.0
2017-Oct-16 15:28N 70°59' E 025°58'0 0.0
2017-Oct-16 14:58N 70°59' E 025°58'0 0.0
2017-Oct-16 13:58N 70°59' E 025°58'0 0.0
2017-Oct-16 13:27N 70°59' E 025°58'1 2.1
2017-Oct-16 13:00N 70°58' E 026°01'1 1.2
2017-Oct-16 12:19N 70°59' E 026°02'0 0.0
2017-Oct-16 11:34N 70°59' E 026°02'0 0.0
2017-Oct-16 11:28N 70°59' E 026°02'0 0.0
2017-Oct-16 09:16N 70°59' E 026°02'0 0.0
2017-Oct-16 08:52N 70°59' E 026°02'0 0.1
2017-Oct-16 08:02N 70°59' E 026°02'0 5.4
2017-Oct-16 07:57N 70°59' E 026°01'1 2.3
2017-Oct-16 07:29N 70°59' E 025°58'0 0.3
2017-Oct-16 06:59N 70°59' E 025°58'0 0.0
2017-Oct-16 06:29N 70°59' E 025°58'0 0.0
2017-Oct-16 05:59N 70°59' E 025°58'0 0.0
2017-Oct-16 05:29N 70°59' E 025°58'0 0.0
2017-Oct-16 04:59N 70°59' E 025°58'0 0.0
2017-Oct-16 04:29N 70°59' E 025°58'0 0.0
2017-Oct-16 03:59N 70°59' E 025°58'0 0.0
2017-Oct-16 03:29N 70°59' E 025°58'0 0.0
2017-Oct-16 02:59N 70°59' E 025°58'0 0.0
2017-Oct-16 02:29N 70°59' E 025°58'0 0.0
2017-Oct-16 01:59N 70°59' E 025°58'0 0.0
2017-Oct-16 01:29N 70°59' E 025°58'0 0.0
2017-Oct-16 00:59N 70°59' E 025°58'0 0.0
2017-Oct-16 00:29N 70°59' E 025°58'0 0.0
2017-Oct-15 23:59N 70°59' E 025°58'0 0.0
2017-Oct-15 23:29N 70°59' E 025°58'0 0.0
2017-Oct-15 22:59N 70°59' E 025°58'0 0.0
2017-Oct-15 22:29N 70°59' E 025°58'0 0.0
2017-Oct-15 21:59N 70°59' E 025°58'0 0.0
2017-Oct-15 21:29N 70°59' E 025°58'0 0.0
2017-Oct-15 20:59N 70°59' E 025°58'0 0.0
2017-Oct-15 20:29N 70°59' E 025°58'0 0.0
2017-Oct-15 19:59N 70°59' E 025°58'0 0.0
2017-Oct-15 19:29N 70°59' E 025°58'0 0.0
2017-Oct-15 18:59N 70°59' E 025°58'0 0.0
2017-Oct-15 18:29N 70°59' E 025°58'0 0.0
2017-Oct-15 17:59N 70°59' E 025°58'0 0.0
2017-Oct-15 17:29N 70°59' E 025°58'0 0.0
2017-Oct-15 16:59N 70°59' E 025°58'0 0.0
2017-Oct-15 16:29N 70°59' E 025°58'0 0.0
2017-Oct-15 15:59N 70°59' E 025°58'0 0.0
2017-Oct-15 15:29N 70°59' E 025°58'0 0.0
2017-Oct-15 14:59N 70°59' E 025°58'0 0.0
2017-Oct-15 13:59N 70°59' E 025°58'0 0.0
2017-Oct-15 13:29N 70°59' E 025°58'0 0.0
2017-Oct-15 12:59N 70°59' E 025°58'0 0.0
2017-Oct-15 12:29N 70°59' E 025°58'0 0.0
2017-Oct-15 11:59N 70°59' E 025°58'0 0.0
2017-Oct-15 11:29N 70°59' E 025°58'0 0.0
2017-Oct-15 10:59N 70°59' E 025°58'0 0.0
2017-Oct-15 10:29N 70°59' E 025°58'0 0.0
2017-Oct-15 09:59N 70°59' E 025°58'0 0.0
2017-Oct-15 09:29N 70°59' E 025°58'0 0.0
2017-Oct-15 08:59N 70°59' E 025°58'0 0.0
2017-Oct-15 08:29N 70°59' E 025°58'0 0.0
2017-Oct-15 07:59N 70°59' E 025°58'0 0.0
2017-Oct-15 07:29N 70°59' E 025°58'0 0.0
2017-Oct-15 06:59N 70°59' E 025°58'0 0.0
2017-Oct-15 06:29N 70°59' E 025°58'0 0.0
2017-Oct-15 05:59N 70°59' E 025°58'0 0.0
2017-Oct-15 05:29N 70°59' E 025°58'0 0.0
2017-Oct-15 04:59N 70°59' E 025°58'0 0.0
2017-Oct-15 04:29N 70°59' E 025°58'0 0.0
2017-Oct-15 03:59N 70°59' E 025°58'0 0.0
2017-Oct-15 03:29N 70°59' E 025°58'0 0.0
2017-Oct-15 02:59N 70°59' E 025°58'0 0.0
2017-Oct-15 02:29N 70°59' E 025°58'0 0.0
2017-Oct-15 01:59N 70°59' E 025°58'0 0.0
2017-Oct-15 01:29N 70°59' E 025°58'0 0.0
2017-Oct-15 00:59N 70°59' E 025°58'0 0.0
2017-Oct-15 00:29N 70°59' E 025°58'0 0.0
2017-Oct-14 23:59N 70°59' E 025°58'0 0.0
2017-Oct-14 23:29N 70°59' E 025°58'0 0.0
2017-Oct-14 22:59N 70°59' E 025°58'0 0.0
2017-Oct-14 22:29N 70°59' E 025°58'0 0.0
2017-Oct-14 21:59N 70°59' E 025°58'0 0.0
2017-Oct-14 21:29N 70°59' E 025°58'0 0.0
2017-Oct-14 20:59N 70°59' E 025°58'0 0.0
2017-Oct-14 20:29N 70°59' E 025°58'0 0.0
2017-Oct-14 19:59N 70°59' E 025°58'0 0.0
2017-Oct-14 19:29N 70°59' E 025°58'0 0.0
2017-Oct-14 18:59N 70°59' E 025°58'0 0.0
2017-Oct-14 18:29N 70°59' E 025°58'0 0.0
2017-Oct-14 17:59N 70°59' E 025°58'0 0.0
2017-Oct-14 17:29N 70°59' E 025°58'0 0.0
2017-Oct-14 16:59N 70°59' E 025°58'0 0.0
2017-Oct-14 16:29N 70°59' E 025°58'0 0.0
2017-Oct-14 15:59N 70°59' E 025°58'0 0.0
2017-Oct-14 15:29N 70°59' E 025°58'0 0.0
2017-Oct-14 14:59N 70°59' E 025°58'0 0.0
2017-Oct-14 14:29N 70°59' E 025°58'0 0.0
2017-Oct-14 13:59N 70°59' E 025°58'0 0.0
2017-Oct-14 13:29N 70°59' E 025°58'0 0.0
2017-Oct-14 12:59N 70°59' E 025°58'0 0.0
2017-Oct-14 12:29N 70°59' E 025°58'0 0.0
2017-Oct-14 11:59N 70°59' E 025°58'0 0.0
2017-Oct-14 11:29N 70°59' E 025°58'0 0.0
2017-Oct-14 10:59N 70°59' E 025°58'0 0.0
2017-Oct-14 10:29N 70°59' E 025°58'0 0.0
2017-Oct-14 09:59N 70°59' E 025°58'0 0.0
2017-Oct-14 09:30N 70°59' E 025°58'0 0.0
2017-Oct-14 08:59N 70°59' E 025°58'0 0.0
2017-Oct-14 08:30N 70°59' E 025°58'0 0.0
2017-Oct-14 07:59N 70°59' E 025°58'0 0.0
2017-Oct-14 07:30N 70°59' E 025°58'0 0.0
2017-Oct-14 07:00N 70°59' E 025°58'0 0.0
2017-Oct-14 06:30N 70°59' E 025°58'0 0.0
2017-Oct-14 06:00N 70°59' E 025°58'0 0.0
2017-Oct-14 05:30N 70°59' E 025°58'0 0.0
2017-Oct-14 05:00N 70°59' E 025°58'0 0.0
2017-Oct-14 04:30N 70°59' E 025°58'0 0.0
2017-Oct-14 04:00N 70°59' E 025°58'0 0.0
2017-Oct-14 03:30N 70°59' E 025°58'0 0.0
2017-Oct-14 03:00N 70°59' E 025°58'0 0.0
2017-Oct-14 02:30N 70°59' E 025°58'0 0.0
2017-Oct-14 02:00N 70°59' E 025°58'0 0.0
2017-Oct-14 01:30N 70°59' E 025°58'0 0.0
2017-Oct-14 01:00N 70°59' E 025°58'0 0.0
2017-Oct-14 00:30N 70°59' E 025°58'0 0.0
2017-Oct-14 00:00N 70°59' E 025°58'0 0.0
2017-Oct-13 23:30N 70°59' E 025°58'0 0.0
2017-Oct-13 23:00N 70°59' E 025°58'0 0.0
2017-Oct-13 22:30N 70°59' E 025°58'0 0.0
2017-Oct-13 22:00N 70°59' E 025°58'0 0.0
2017-Oct-13 21:30N 70°59' E 025°58'0 0.0
2017-Oct-13 20:59N 70°59' E 025°58'0 0.0
2017-Oct-13 20:29N 70°59' E 025°58'0 0.0
2017-Oct-13 19:58N 70°59' E 025°58'0 0.0
2017-Oct-13 19:28N 70°59' E 025°58'0 0.0
2017-Oct-13 18:58N 70°59' E 025°58'0 0.0
2017-Oct-13 18:28N 70°59' E 025°58'1 1.3
2017-Oct-13 18:00N 70°59' E 025°57'4 7.3
2017-Oct-13 17:30N 70°56' E 025°48'4 7.3
2017-Oct-13 16:59N 70°56' E 025°36'4 7.5
2017-Oct-13 16:30N 70°58' E 025°27'4 7.5
2017-Oct-13 16:00N 70°59' E 025°16'4 7.2
2017-Oct-13 15:30N 70°59' E 025°05'3 7.0
2017-Oct-13 15:00N 70°59' E 024°54'4 7.2
2017-Oct-13 14:30N 70°60' E 024°43'1 2.5
2017-Oct-13 14:00N 70°60' E 024°39'0 0.0
2017-Oct-13 13:30N 70°60' E 024°39'1 3.0
2017-Oct-13 13:00N 70°60' E 024°44'2 5.0
2017-Oct-13 12:30N 70°60' E 024°52'3 5.1
2017-Oct-13 12:00N 70°60' E 024°59'3 5.0
2017-Oct-13 11:29N 70°60' E 025°07'2 5.1
2017-Oct-13 11:01N 70°59' E 025°15'2 5.0
2017-Oct-13 10:30N 70°59' E 025°22'4 5.3
2017-Oct-13 09:50N 70°56' E 025°31'1 4.3
2017-Oct-13 09:30N 70°56' E 025°35'3 5.2
2017-Oct-13 09:00N 70°56' E 025°42'2 4.5
2017-Oct-13 08:30N 70°57' E 025°49'2 4.7
2017-Oct-13 08:00N 70°57' E 025°56'2 0.1
2017-Oct-12 16:24N 70°59' E 025°58'0 0.0
2017-Oct-12 15:59N 70°59' E 025°58'0 0.0
2017-Oct-12 15:29N 70°59' E 025°58'0 0.0
2017-Oct-12 14:59N 70°59' E 025°58'0 0.0
2017-Oct-12 14:29N 70°59' E 025°58'0 0.0
2017-Oct-12 13:59N 70°59' E 025°58'0 0.0
2017-Oct-12 13:29N 70°59' E 025°58'0 0.0
2017-Oct-12 12:59N 70°59' E 025°58'0 0.0
2017-Oct-12 12:29N 70°59' E 025°58'0 0.0
2017-Oct-12 11:59N 70°59' E 025°58'0 0.0
2017-Oct-12 11:29N 70°59' E 025°58'0 0.0
2017-Oct-12 10:59N 70°59' E 025°58'0 0.0
2017-Oct-12 10:29N 70°59' E 025°58'0 0.0
2017-Oct-12 09:59N 70°59' E 025°58'0 0.0
2017-Oct-12 09:29N 70°59' E 025°58'0 0.0
2017-Oct-12 08:59N 70°59' E 025°58'0 0.0
2017-Oct-12 08:29N 70°59' E 025°58'0 0.0
2017-Oct-12 07:59N 70°59' E 025°58'0 0.0
2017-Oct-12 07:29N 70°59' E 025°58'0 0.0
2017-Oct-12 06:59N 70°59' E 025°58'0 0.0
2017-Oct-12 06:29N 70°59' E 025°58'0 0.0
2017-Oct-12 05:59N 70°59' E 025°58'0 0.0
2017-Oct-12 05:29N 70°59' E 025°58'0 0.0
2017-Oct-12 04:59N 70°59' E 025°58'0 0.0
2017-Oct-12 04:29N 70°59' E 025°58'0 0.0
2017-Oct-12 03:59N 70°59' E 025°58'0 0.0
2017-Oct-12 03:29N 70°59' E 025°58'0 0.0
2017-Oct-12 02:59N 70°59' E 025°58'0 0.0
2017-Oct-12 02:29N 70°59' E 025°58'0 0.0
2017-Oct-12 01:59N 70°59' E 025°58'0 0.0
2017-Oct-12 01:29N 70°59' E 025°58'0 0.0
2017-Oct-12 00:59N 70°59' E 025°58'0 0.0
2017-Oct-12 00:29N 70°59' E 025°58'0 0.0
2017-Oct-11 23:59N 70°59' E 025°58'0 0.0
2017-Oct-11 23:29N 70°59' E 025°58'0 0.0
2017-Oct-11 22:59N 70°59' E 025°58'0 0.0
2017-Oct-11 22:29N 70°59' E 025°58'0 0.0
2017-Oct-11 21:59N 70°59' E 025°58'0 0.0
2017-Oct-11 21:30N 70°59' E 025°58'0 0.0
2017-Oct-11 20:59N 70°59' E 025°58'0 0.0
2017-Oct-11 20:29N 70°59' E 025°58'0 0.0
2017-Oct-11 19:59N 70°59' E 025°58'0 0.0
2017-Oct-11 19:29N 70°59' E 025°58'0 0.0
2017-Oct-11 18:59N 70°59' E 025°58'0 0.0
2017-Oct-11 18:29N 70°59' E 025°58'0 0.0
2017-Oct-11 18:00N 70°59' E 025°58'0 0.0
2017-Oct-11 17:30N 70°59' E 025°58'0 0.0
2017-Oct-11 17:00N 70°59' E 025°58'0 0.0
2017-Oct-11 00:00N 70°59' E 025°58'0 0.0
2017-Oct-10 23:30N 70°59' E 025°58'0 0.0
2017-Oct-10 23:00N 70°59' E 025°58'0 0.0
2017-Oct-10 22:30N 70°59' E 025°58'0 0.0
2017-Oct-10 22:00N 70°59' E 025°58'0 0.0
2017-Oct-10 21:30N 70°59' E 025°58'0 0.0
2017-Oct-10 21:00N 70°59' E 025°58'0 0.0
2017-Oct-10 20:30N 70°59' E 025°58'0 0.0
2017-Oct-10 20:00N 70°59' E 025°58'0 0.0
2017-Oct-10 19:30N 70°59' E 025°58'0 0.0
2017-Oct-10 19:00N 70°59' E 025°58'0 0.0
2017-Oct-10 18:30N 70°59' E 025°58'0 0.0
2017-Oct-10 18:00N 70°59' E 025°58'0 0.0
2017-Oct-10 17:30N 70°59' E 025°58'0 0.0
2017-Oct-10 17:00N 70°59' E 025°58'0 0.0
2017-Oct-10 16:30N 70°59' E 025°58'0 0.0
2017-Oct-10 16:00N 70°59' E 025°58'0 0.0
2017-Oct-10 15:30N 70°59' E 025°58'0 0.0
2017-Oct-10 15:00N 70°59' E 025°58'0 0.0
2017-Oct-10 14:00N 70°59' E 025°58'0 0.0
2017-Oct-10 13:30N 70°59' E 025°58'0 0.0
2017-Oct-10 13:00N 70°59' E 025°58'0 0.0
2017-Oct-10 12:30N 70°59' E 025°58'0 0.0
2017-Oct-10 12:00N 70°59' E 025°58'0 0.0
2017-Oct-10 11:30N 70°59' E 025°58'0 0.0
2017-Oct-10 11:00N 70°59' E 025°58'0 0.0
2017-Oct-10 10:30N 70°59' E 025°58'0 0.0
2017-Oct-10 10:00N 70°59' E 025°58'0 0.0
2017-Oct-10 09:30N 70°59' E 025°58'0 0.0
2017-Oct-10 09:00N 70°59' E 025°58'0 0.0
2017-Oct-10 08:30N 70°59' E 025°58'0 0.0
2017-Oct-10 07:57N 70°59' E 025°58'0 0.0
2017-Oct-10 07:30N 70°59' E 025°58'0 0.0
2017-Oct-10 07:00N 70°59' E 025°58'0 0.0
2017-Oct-10 06:30N 70°59' E 025°58'0 0.0
2017-Oct-10 06:00N 70°59' E 025°58'0 0.0
2017-Oct-10 05:30N 70°59' E 025°58'0 0.0
2017-Oct-10 05:00N 70°59' E 025°58'0 0.0
2017-Oct-10 04:30N 70°59' E 025°58'0 0.0
2017-Oct-10 04:00N 70°59' E 025°58'0 0.0
2017-Oct-10 03:30N 70°59' E 025°58'0 0.0
2017-Oct-10 03:00N 70°59' E 025°58'0 0.0
2017-Oct-10 02:30N 70°59' E 025°58'0 0.0
2017-Oct-10 02:00N 70°59' E 025°58'0 0.0
2017-Oct-10 01:30N 70°59' E 025°58'0 0.0
2017-Oct-10 01:00N 70°59' E 025°58'0 0.0
2017-Oct-10 00:30N 70°59' E 025°58'0 0.0
2017-Oct-10 00:00N 70°59' E 025°58'0 0.0
2017-Oct-09 23:30N 70°59' E 025°58'0 0.0
2017-Oct-09 23:00N 70°59' E 025°58'0 0.0
2017-Oct-09 22:30N 70°59' E 025°58'0 0.0
2017-Oct-09 22:00N 70°59' E 025°58'0 0.0
2017-Oct-09 21:30N 70°59' E 025°58'0 0.0
2017-Oct-09 21:00N 70°59' E 025°58'0 0.0
2017-Oct-09 20:30N 70°59' E 025°58'0 0.0
2017-Oct-09 20:00N 70°59' E 025°58'0 0.0
2017-Oct-09 19:30N 70°59' E 025°58'0 0.0
2017-Oct-09 19:00N 70°59' E 025°58'0 0.0
2017-Oct-09 18:30N 70°59' E 025°58'0 0.0
2017-Oct-09 18:00N 70°59' E 025°58'0 0.0
2017-Oct-09 17:30N 70°59' E 025°58'0 0.0
2017-Oct-09 17:00N 70°59' E 025°58'0 0.0
2017-Oct-09 16:30N 70°59' E 025°58'0 0.0
2017-Oct-09 16:00N 70°59' E 025°58'0 0.0
2017-Oct-09 15:30N 70°59' E 025°58'0 0.0
2017-Oct-09 15:00N 70°59' E 025°58'0 0.0
2017-Oct-09 14:30N 70°59' E 025°58'0 0.0
2017-Oct-09 14:00N 70°59' E 025°58'0 0.0
2017-Oct-09 13:30N 70°59' E 025°58'0 0.0
2017-Oct-09 13:00N 70°59' E 025°58'0 0.0
2017-Oct-09 12:30N 70°59' E 025°58'0 0.0
2017-Oct-09 12:00N 70°59' E 025°58'0 0.0
2017-Oct-09 11:30N 70°59' E 025°58'0 0.0
2017-Oct-09 11:00N 70°59' E 025°58'  

Dump ship's entire track history